createdAt,value
2022-08-02T00:01:55.118Z,1.10
2022-08-02T00:05:40.311Z,1.10
2022-08-02T00:09:23.243Z,1.20
2022-08-02T00:13:06.078Z,1.30
2022-08-02T00:16:48.889Z,1.10
2022-08-02T00:20:31.769Z,1.07
2022-08-02T00:24:30.130Z,1.15
2022-08-02T00:28:13.516Z,1.20
2022-08-02T00:31:56.277Z,1.02
2022-08-02T00:35:40.729Z,1.20
2022-08-02T00:39:33.355Z,1.10
2022-08-02T00:43:19.075Z,1.00
2022-08-02T00:47:01.915Z,1.10
2022-08-02T00:50:44.738Z,1.20
2022-08-02T00:54:28.888Z,1.13
2022-08-02T00:58:11.708Z,1.40
2022-08-02T01:01:57.910Z,1.43
2022-08-02T01:06:02.408Z,1.47
2022-08-02T01:09:54.936Z,1.40
2022-08-02T01:13:37.997Z,1.38
2022-08-02T01:17:30.523Z,1.52
2022-08-02T01:21:34.362Z,1.30
2022-08-02T01:25:30.668Z,1.40
2022-08-02T01:29:19.094Z,1.45
2022-08-02T01:33:03.100Z,1.60
2022-08-02T01:36:48.368Z,1.70
2022-08-02T01:40:33.019Z,1.50
2022-08-02T01:44:18.214Z,1.70
2022-08-02T01:48:11.303Z,1.60
2022-08-02T01:52:11.882Z,1.50
2022-08-02T01:55:57.799Z,1.70
2022-08-02T01:59:44.178Z,1.70
2022-08-02T02:03:30.366Z,1.73
2022-08-02T02:07:15.699Z,1.60
2022-08-02T02:12:05.809Z,1.60
2022-08-02T02:15:03.615Z,1.80
2022-08-02T02:18:49.297Z,1.70
2022-08-02T02:22:32.112Z,1.73
2022-08-02T02:26:16.854Z,1.90
2022-08-02T02:30:06.867Z,1.80
2022-08-02T02:33:52.047Z,1.70
2022-08-02T02:37:35.055Z,1.80
2022-08-02T02:41:18.671Z,1.90
2022-08-02T02:45:01.455Z,1.80
2022-08-02T02:48:45.929Z,1.63
2022-08-02T02:52:28.854Z,1.80
2022-08-02T02:56:12.092Z,1.93
2022-08-02T02:59:55.185Z,1.70
2022-08-02T03:03:38.570Z,1.70
2022-08-02T03:07:22.859Z,1.97
2022-08-02T03:11:05.899Z,1.70
2022-08-02T03:14:49.637Z,1.83
2022-08-02T03:18:33.517Z,2.03
2022-08-02T03:22:16.403Z,2.08
2022-08-02T03:26:00.967Z,2.00
2022-08-02T03:29:43.810Z,1.80
2022-08-02T03:33:27.377Z,2.33
2022-08-02T03:37:10.321Z,2.00
2022-08-02T03:40:53.273Z,2.30
2022-08-02T03:44:39.498Z,2.20
2022-08-02T03:48:34.605Z,2.10
2022-08-02T03:52:18.073Z,1.90
2022-08-02T03:56:00.979Z,2.10
2022-08-02T03:59:47.104Z,2.10
2022-08-02T04:03:30.282Z,2.30
2022-08-02T04:07:13.021Z,2.00
2022-08-02T04:11:13.467Z,2.30
2022-08-02T04:14:57.995Z,2.10
2022-08-02T04:18:44.678Z,2.00
2022-08-02T04:22:31.053Z,2.03
2022-08-02T04:26:14.175Z,2.30
2022-08-02T04:30:00.529Z,2.20
2022-08-02T04:33:43.882Z,2.30
2022-08-02T04:37:27.052Z,2.10
2022-08-02T04:41:10.342Z,2.23
2022-08-02T04:44:54.113Z,2.40
2022-08-02T04:48:38.230Z,2.33
2022-08-02T04:52:20.972Z,2.10
2022-08-02T04:56:03.758Z,2.50
2022-08-02T04:59:50.408Z,2.20
2022-08-02T05:03:35.613Z,2.50
2022-08-02T05:07:19.704Z,3.90
2022-08-02T05:11:02.486Z,6.83
2022-08-02T05:14:45.262Z,9.13
2022-08-02T05:18:28.488Z,6.00
2022-08-02T05:22:14.608Z,3.73
2022-08-02T05:26:01.263Z,2.20
2022-08-02T05:29:53.566Z,3.00
2022-08-02T05:33:36.913Z,2.70
2022-08-02T05:37:19.650Z,3.60
2022-08-02T05:41:03.836Z,2.10
2022-08-02T05:44:46.993Z,2.00
2022-08-02T05:48:32.204Z,1.83
2022-08-02T05:52:17.881Z,1.97
2022-08-02T05:56:10.820Z,1.58
2022-08-02T06:00:03.206Z,1.65
2022-08-02T06:03:52.154Z,1.77
2022-08-02T06:07:37.481Z,1.70
2022-08-02T06:11:23.391Z,1.60
2022-08-02T06:15:10.055Z,1.58
2022-08-02T06:18:52.918Z,1.90
2022-08-02T06:22:36.962Z,2.03
2022-08-02T06:26:23.669Z,1.70
2022-08-02T06:30:07.737Z,1.80
2022-08-02T06:33:50.765Z,1.50
2022-08-02T06:37:39.017Z,1.50
2022-08-02T06:41:25.963Z,1.70
2022-08-02T06:45:09.773Z,1.88
2022-08-02T06:48:52.826Z,1.90
2022-08-02T06:52:36.188Z,1.45
2022-08-02T06:56:19.418Z,1.48
2022-08-02T07:00:08.667Z,1.70
2022-08-02T07:03:51.518Z,1.63
2022-08-02T07:07:34.529Z,1.60
2022-08-02T07:11:17.304Z,1.65
2022-08-02T07:15:00.469Z,1.60
2022-08-02T07:18:44.677Z,1.30
2022-08-02T07:22:28.772Z,1.38
2022-08-02T07:26:11.561Z,1.70
2022-08-02T07:29:54.719Z,1.38
2022-08-02T07:33:40.205Z,1.50
2022-08-02T07:37:53.286Z,1.42
2022-08-02T07:41:32.168Z,1.60
2022-08-02T07:45:15.426Z,1.48
2022-08-02T07:48:58.215Z,1.40
2022-08-02T07:52:43.034Z,1.83
2022-08-02T07:56:25.859Z,1.48
2022-08-02T08:00:10.541Z,1.60
2022-08-02T08:03:56.122Z,1.80
2022-08-02T08:07:39.057Z,1.33
2022-08-02T08:11:23.311Z,1.38
2022-08-02T08:15:07.186Z,1.42
2022-08-02T08:18:50.005Z,1.35
2022-08-02T08:22:32.808Z,1.38
2022-08-02T08:26:16.221Z,1.33
2022-08-02T08:30:00.429Z,1.23
2022-08-02T08:33:43.213Z,1.45
2022-08-02T08:37:27.320Z,1.70
2022-08-02T08:41:10.172Z,1.40
2022-08-02T08:44:52.975Z,1.33
2022-08-02T08:48:40.057Z,1.30
2022-08-02T08:52:24.928Z,1.33
2022-08-02T08:56:07.723Z,1.23
2022-08-02T08:59:50.731Z,1.30
2022-08-02T09:03:33.861Z,1.20
2022-08-02T09:07:18.260Z,1.55
2022-08-02T09:11:01.570Z,1.27
2022-08-02T09:14:44.856Z,1.48
2022-08-02T09:18:31.897Z,1.30
2022-08-02T09:22:16.162Z,1.48
2022-08-02T09:26:07.121Z,1.30
2022-08-02T09:30:12.156Z,1.33
2022-08-02T09:33:58.213Z,1.40
2022-08-02T09:37:41.984Z,1.40
2022-08-02T09:41:28.313Z,1.60
2022-08-02T09:45:11.470Z,1.42
2022-08-02T09:48:55.541Z,1.42
2022-08-02T09:52:43.523Z,1.23
2022-08-02T09:56:35.274Z,1.38
2022-08-02T10:00:31.463Z,1.30
2022-08-02T10:04:24.617Z,1.67
2022-08-02T10:08:07.678Z,1.50
2022-08-02T10:11:52.577Z,1.30
2022-08-02T10:15:35.420Z,1.27
2022-08-02T10:20:02.332Z,1.40
2022-08-02T10:23:26.998Z,1.40
2022-08-02T10:27:20.108Z,1.60
2022-08-02T10:31:05.475Z,1.40
2022-08-02T10:34:51.579Z,1.33
2022-08-02T10:38:34.838Z,1.60
2022-08-02T10:42:49.887Z,1.50
2022-08-02T10:46:34.289Z,1.27
2022-08-02T10:50:17.349Z,1.80
2022-08-02T10:54:10.064Z,1.30
2022-08-02T10:58:17.303Z,1.20
2022-08-02T11:02:04.824Z,1.25
2022-08-02T11:06:02.062Z,1.20
2022-08-02T11:09:45.572Z,1.20
2022-08-02T11:13:30.309Z,1.10
2022-08-02T11:17:15.171Z,1.20
2022-08-02T11:21:23.426Z,1.30
2022-08-02T11:26:02.873Z,1.20
2022-08-02T11:29:43.474Z,1.15
2022-08-02T11:33:32.316Z,1.30
2022-08-02T11:37:15.114Z,1.25
2022-08-02T11:40:58.000Z,1.30
2022-08-02T11:44:43.417Z,1.33
2022-08-02T11:48:36.758Z,0.90
2022-08-02T11:52:20.142Z,1.38
2022-08-02T11:56:02.932Z,1.20
2022-08-02T11:59:48.191Z,1.00
2022-08-02T12:03:35.486Z,0.90
2022-08-02T12:07:18.360Z,1.05
2022-08-02T12:11:20.251Z,1.02
2022-08-02T12:15:04.802Z,1.00
2022-08-02T12:19:07.321Z,1.33
2022-08-02T12:22:50.126Z,1.27
2022-08-02T12:26:43.231Z,1.20
2022-08-02T12:30:28.016Z,1.00
2022-08-02T12:34:17.002Z,1.10
2022-08-02T12:38:10.841Z,1.08
2022-08-02T12:41:58.407Z,0.93
2022-08-02T12:45:49.411Z,0.88
2022-08-02T12:49:35.654Z,1.00
2022-08-02T12:53:19.172Z,1.00
2022-08-02T12:57:12.533Z,0.82
2022-08-02T13:00:58.094Z,0.88
2022-08-02T13:04:41.917Z,1.02
2022-08-02T13:08:33.247Z,0.90
2022-08-02T13:12:16.508Z,0.90
2022-08-02T13:16:01.371Z,0.90
2022-08-02T13:19:44.128Z,1.10
2022-08-02T13:23:39.656Z,1.20
2022-08-02T13:27:30.479Z,1.10
2022-08-02T13:31:35.479Z,1.00
2022-08-02T13:35:18.325Z,1.33
2022-08-02T13:39:01.341Z,0.80
2022-08-02T13:42:44.391Z,0.90
2022-08-02T13:46:29.691Z,0.75
2022-08-02T13:50:12.646Z,0.70
2022-08-02T13:53:55.437Z,1.00
2022-08-02T13:57:38.223Z,0.80
2022-08-02T14:01:21.112Z,2.83
2022-08-02T14:05:05.908Z,2.53
2022-08-02T14:08:49.072Z,1.13
2022-08-02T14:12:31.864Z,0.85
2022-08-02T14:16:14.696Z,0.90
2022-08-02T14:19:57.477Z,1.48
2022-08-02T14:23:49.030Z,1.05
2022-08-02T14:27:39.354Z,1.10
2022-08-02T14:31:22.279Z,1.30
2022-08-02T14:35:05.668Z,2.00
2022-08-02T14:38:49.794Z,1.50
2022-08-02T14:42:32.546Z,0.90
2022-08-02T14:46:15.330Z,1.00
2022-08-02T14:49:58.295Z,1.30
2022-08-02T14:53:49.351Z,0.70
2022-08-02T14:57:34.111Z,0.60
2022-08-02T15:01:16.885Z,0.80
2022-08-02T15:04:59.656Z,0.80
2022-08-02T15:08:42.741Z,0.80
2022-08-02T15:12:25.635Z,0.80
2022-08-02T15:16:10.047Z,0.65
2022-08-02T15:19:57.473Z,0.80
2022-08-02T15:23:43.031Z,0.60
2022-08-02T15:27:25.850Z,0.65
2022-08-02T15:31:09.976Z,0.88
2022-08-02T15:34:53.015Z,0.60
2022-08-02T15:38:36.052Z,0.70
2022-08-02T15:42:18.918Z,0.80
2022-08-02T15:46:01.715Z,0.50
2022-08-02T15:49:47.523Z,0.70
2022-08-02T15:53:32.511Z,0.65
2022-08-02T15:57:15.252Z,0.52
2022-08-02T16:00:58.057Z,0.82
2022-08-02T16:04:40.862Z,0.63
2022-08-02T16:08:25.032Z,0.60
2022-08-02T16:12:08.219Z,0.60
2022-08-02T16:15:50.944Z,0.90
2022-08-02T16:19:48.753Z,0.52
2022-08-02T16:24:01.406Z,0.57
2022-08-02T16:28:06.313Z,1.48
2022-08-02T16:31:42.776Z,0.90
2022-08-02T16:35:27.429Z,0.70
2022-08-02T16:39:11.603Z,0.68
2022-08-02T16:42:54.332Z,0.70
2022-08-02T16:46:37.916Z,0.60
2022-08-02T16:50:27.125Z,0.70
2022-08-02T16:54:12.550Z,0.60
2022-08-02T16:57:57.003Z,0.60
2022-08-02T17:02:10.947Z,0.60
2022-08-02T17:10:04.051Z,0.85
2022-08-02T17:13:49.578Z,0.73
2022-08-02T17:17:33.743Z,0.60
2022-08-02T17:21:18.272Z,0.80
2022-08-02T17:25:02.601Z,0.80
2022-08-02T17:29:14.065Z,0.93
2022-08-02T17:32:49.146Z,0.70
2022-08-02T17:36:32.530Z,3.10
2022-08-02T17:40:19.855Z,1.23
2022-08-02T17:44:37.215Z,1.30
2022-08-02T17:48:21.342Z,1.30
2022-08-02T17:52:15.846Z,1.20
2022-08-02T17:56:16.713Z,1.90
2022-08-02T18:00:03.969Z,1.05
2022-08-02T18:03:48.962Z,0.82
2022-08-02T18:07:50.152Z,2.20
2022-08-02T18:11:52.457Z,0.90
2022-08-02T18:15:35.959Z,0.80
2022-08-02T18:19:19.688Z,1.38
2022-08-02T18:23:02.595Z,2.10
2022-08-02T18:26:46.720Z,1.92
2022-08-02T18:30:29.556Z,0.90
2022-08-02T18:34:12.628Z,1.00
2022-08-02T18:37:57.378Z,1.20
2022-08-02T18:41:48.252Z,1.10
2022-08-02T18:46:04.501Z,1.00
2022-08-02T18:49:46.033Z,1.60
2022-08-02T18:53:41.616Z,1.75
2022-08-02T18:58:02.218Z,1.83
2022-08-02T19:01:33.994Z,1.38
2022-08-02T19:05:17.681Z,1.70
2022-08-02T19:09:11.002Z,2.00
2022-08-02T19:13:17.289Z,2.65
2022-08-02T19:17:53.252Z,5.63
2022-08-02T19:21:05.544Z,4.55
2022-08-02T19:24:51.630Z,2.20
2022-08-02T19:28:35.860Z,3.55
2022-08-02T19:32:42.694Z,3.30
2022-08-02T19:36:22.754Z,2.40
2022-08-02T19:40:09.885Z,2.88
2022-08-02T19:44:23.045Z,2.58
2022-08-02T19:47:57.162Z,4.57
2022-08-02T19:51:49.631Z,4.35
2022-08-02T19:55:59.752Z,4.10
2022-08-02T19:59:37.363Z,3.33
2022-08-02T20:03:20.839Z,3.80
2022-08-02T20:07:54.758Z,3.70
2022-08-02T20:11:34.977Z,3.10
2022-08-02T20:15:19.514Z,2.88
2022-08-02T20:19:05.510Z,2.22
2022-08-02T20:23:32.448Z,2.40
2022-08-02T20:27:13.594Z,3.08
2022-08-02T20:31:07.124Z,3.00
2022-08-02T20:34:52.680Z,2.80
2022-08-02T20:38:38.726Z,2.75
2022-08-02T20:42:23.077Z,2.70
2022-08-02T20:46:08.216Z,2.65
2022-08-02T20:50:05.215Z,2.70
2022-08-02T20:53:56.039Z,2.78
2022-08-02T20:57:48.712Z,2.67
2022-08-02T21:01:57.438Z,2.95
2022-08-02T21:05:54.611Z,2.53
2022-08-02T21:09:53.113Z,3.13
2022-08-02T21:13:47.418Z,8.60
2022-08-02T21:17:42.566Z,4.47
2022-08-02T21:21:34.669Z,4.15
2022-08-02T21:25:18.637Z,3.35
2022-08-02T21:29:06.946Z,3.78
2022-08-02T21:32:54.495Z,3.88
2022-08-02T21:36:37.281Z,4.00
2022-08-02T21:40:23.461Z,4.00
2022-08-02T21:44:06.886Z,4.03
2022-08-02T21:47:51.081Z,3.70
2022-08-02T21:51:34.298Z,3.60
2022-08-02T21:55:17.217Z,3.78
2022-08-02T21:59:15.635Z,3.13
2022-08-02T22:03:00.295Z,3.08
2022-08-02T22:07:03.051Z,2.75
2022-08-02T22:11:17.037Z,3.20
2022-08-02T22:15:00.851Z,3.08
2022-08-02T22:18:51.262Z,2.80
2022-08-02T22:22:34.394Z,2.78
2022-08-02T22:26:19.177Z,3.40
2022-08-02T22:30:02.378Z,3.00
2022-08-02T22:34:05.008Z,3.72
2022-08-02T22:38:17.251Z,3.60
2022-08-02T22:42:06.351Z,3.40
2022-08-02T22:45:50.208Z,2.90
2022-08-02T22:49:38.410Z,2.92
2022-08-02T22:53:36.121Z,2.97
2022-08-02T22:57:30.801Z,2.72
2022-08-02T22:58:36.524Z,0.80
2022-08-02T23:01:14.182Z,3.05
2022-08-02T23:04:58.399Z,2.63
2022-08-02T23:08:41.203Z,2.78
2022-08-02T23:12:24.190Z,2.45
2022-08-02T23:16:24.950Z,2.33
2022-08-02T23:20:10.690Z,2.50
2022-08-02T23:23:53.453Z,2.45
2022-08-02T23:27:36.698Z,2.40
2022-08-02T23:31:33.598Z,2.25
2022-08-02T23:35:21.720Z,2.40
2022-08-02T23:39:04.707Z,2.00
2022-08-02T23:42:50.729Z,2.10
2022-08-02T23:46:33.525Z,2.60
2022-08-02T23:50:16.331Z,2.40
2022-08-02T23:54:00.427Z,1.90
2022-08-02T23:57:43.212Z,1.95
